Time;durP1;ratioP1;P1;durP2;ratioP2;P2;SDS_P1;SDS_P2;PMS_P1;PMS_P2;Temp;Humidity;BMP_temperature;BMP_pressure;BME280_temperature;BME280_humidity;BME280_pressure;Samples;Min_cycle;Max_cycle;Signal;HPM_P1;HPM_P2
2022/03/17 00:02:07;;;;;;;19.13;9.95;;;;;;;4.57;100.00;97607.22;5027753;28;20056;-60
2022/03/17 00:04:34;;;;;;;12.50;6.78;;;;;;;5.02;100.00;97687.44;5027091;28;20097;-56
2022/03/17 00:07:02;;;;;;;12.48;6.00;;;;;;;4.81;100.00;97658.97;5040387;28;20458;-68
2022/03/17 00:09:28;;;;;;;11.52;5.72;;;;;;;4.88;100.00;97678.53;5046796;28;20048;-56
2022/03/17 00:11:55;;;;;;;11.10;5.72;;;;;;;4.53;100.00;97618.06;5046417;28;20057;-69
2022/03/17 00:14:22;;;;;;;6.65;3.55;;;;;;;4.81;100.00;97669.94;5045917;28;20416;-57
2022/03/17 00:16:49;;;;;;;5.28;2.90;;;;;;;3.84;100.00;97530.34;5045065;28;20056;-57
2022/03/17 00:19:16;;;;;;;4.30;2.67;;;;;;;4.72;100.00;97688.31;5046308;28;20133;-56
2022/03/17 00:21:43;;;;;;;4.95;2.38;;;;;;;4.69;100.00;97674.09;5046328;28;20275;-57
2022/03/17 00:24:10;;;;;;;4.35;1.80;;;;;;;4.14;100.00;97595.31;5046426;28;20544;-68
2022/03/17 00:26:37;;;;;;;2.95;1.30;;;;;;;4.60;100.00;97692.47;5045921;28;20053;-69
2022/03/17 00:29:07;;;;;;;2.40;1.33;;;;;;;4.37;100.00;97668.97;5044810;28;20056;-67
2022/03/17 00:31:37;;;;;;;2.53;1.20;;;;;;;4.60;100.00;97692.47;5046230;28;20045;-67
2022/03/17 00:34:08;;;;;;;2.30;1.05;;;;;;;4.12;100.00;97619.47;5046231;28;20127;-55
2022/03/17 00:36:36;;;;;;;1.58;0.80;;;;;;;4.51;98.80;97694.38;5045697;28;20045;-55
2022/03/17 00:39:04;;;;;;;0.52;0.52;;;;;;;4.49;99.80;97704.84;5044638;28;20061;-65
2022/03/17 00:41:32;;;;;;;0.85;0.60;;;;;;;4.40;98.92;97693.03;5046024;28;20060;-67
2022/03/17 00:43:58;;;;;;;2.95;0.80;;;;;;;4.50;97.54;97703.69;5046389;28;20053;-68
2022/03/17 00:46:25;;;;;;;1.02;0.57;;;;;;;4.38;97.16;97698.00;5045602;28;20075;-56
2022/03/17 00:48:52;;;;;;;0.90;0.50;;;;;;;4.36;97.85;97672.81;5044458;28;20506;-55
2022/03/17 00:51:18;;;;;;;1.42;0.50;;;;;;;4.49;97.48;97706.75;5045755;28;20048;-55
2022/03/17 00:53:46;;;;;;;0.50;0.50;;;;;;;4.49;97.32;97702.09;5045548;28;20504;-57
2022/03/17 00:56:13;;;;;;;1.10;0.60;;;;;;;4.18;95.67;97632.75;5044258;28;20138;-68
2022/03/17 00:58:40;;;;;;;1.15;0.68;;;;;;;4.63;94.20;97702.81;5045731;28;20163;-57
2022/03/17 01:01:08;;;;;;;2.17;0.90;;;;;;;4.53;94.89;97705.84;5044888;28;20593;-55
2022/03/17 01:03:35;;;;;;;2.80;1.10;;;;;;;4.53;94.28;97703.09;5045497;28;20444;-67
2022/03/17 01:06:02;;;;;;;1.33;0.90;;;;;;;4.19;96.53;97659.03;5040418;28;20049;-67
2022/03/17 01:08:34;;;;;;;3.33;0.85;;;;;;;4.61;96.60;97721.53;5024608;28;20440;-59
2022/03/17 01:11:01;;;;;;;1.50;0.70;;;;;;;4.57;94.45;97715.03;5025561;28;20049;-56
2022/03/17 01:13:28;;;;;;;9.30;2.75;;;;;;;4.22;94.49;97646.63;5025562;28;20083;-66
2022/03/17 01:15:55;;;;;;;12.63;3.65;;;;;;;4.26;92.87;97636.63;5025718;28;20423;-56
2022/03/17 01:18:22;;;;;;;2.90;1.15;;;;;;;2.72;90.57;97404.88;5023839;28;20144;-68
2022/03/17 01:20:49;;;;;;;1.15;0.63;;;;;;;4.51;90.56;97705.34;5025843;28;20049;-65
2022/03/17 01:23:15;;;;;;;2.40;0.70;;;;;;;4.43;90.08;97697.88;5025633;28;20158;-55
2022/03/17 01:25:42;;;;;;;2.90;0.95;;;;;;;4.04;90.67;97629.28;5025506;28;20059;-56
2022/03/17 01:28:09;;;;;;;2.10;1.05;;;;;;;4.39;90.67;97691.38;5025358;28;20057;-56
2022/03/17 01:30:37;;;;;;;1.63;1.52;;;;;;;4.32;90.76;97702.00;5023587;28;20050;-55
2022/03/17 01:33:04;;;;;;;2.47;1.13;;;;;;;4.08;92.17;97712.50;5023586;28;20061;-56
2022/03/17 01:35:30;;;;;;;1.95;1.05;;;;;;;4.08;92.83;97712.50;5025327;28;20052;-58
2022/03/17 01:37:57;;;;;;;2.20;1.30;;;;;;;3.80;93.24;97705.53;5023697;28;20409;-56
2022/03/17 01:40:24;;;;;;;2.08;1.40;;;;;;;4.14;94.04;97727.69;5023596;28;20053;-66
2022/03/17 01:42:51;;;;;;;3.33;1.45;;;;;;;4.17;93.38;97727.06;5025420;28;20060;-65
2022/03/17 01:45:17;;;;;;;3.22;1.65;;;;;;;4.25;92.82;97734.53;5025693;28;20053;-55
2022/03/17 01:47:44;;;;;;;4.30;1.90;;;;;;;3.99;90.89;97703.41;5024944;28;20064;-66
2022/03/17 01:50:15;;;;;;;4.82;2.40;;;;;;;4.25;90.95;97742.75;5025066;28;20049;-57
2022/03/17 01:52:42;;;;;;;6.93;3.15;;;;;;;3.82;87.05;97667.66;5024845;28;20543;-67
2022/03/17 01:55:11;;;;;;;9.10;4.50;;;;;;;3.97;85.88;97689.19;5024871;28;20053;-57
2022/03/17 01:57:39;;;;;;;14.88;5.97;;;;;;;4.48;86.37;97744.38;5025120;28;20115;-57
2022/03/17 02:00:09;;;;;;;7.25;4.05;;;;;;;4.57;87.03;97758.13;5024064;28;20068;-55
2022/03/17 02:02:35;;;;;;;9.82;4.50;;;;;;;4.44;87.20;97737.88;5022990;28;20068;-66
2022/03/17 02:05:04;;;;;;;16.83;7.72;;;;;;;4.33;85.64;97742.00;5024585;28;20204;-67
2022/03/17 02:07:30;;;;;;;9.25;4.55;;;;;;;4.27;82.59;97767.13;5040722;28;20059;-66
2022/03/17 02:09:57;;;;;;;17.50;8.52;;;;;;;4.21;82.87;97777.41;5042750;28;20052;-55
2022/03/17 02:15:10;;;;;;;23.10;11.07;;;;;;;3.62;81.93;97657.19;5044069;28;20053;-56
2022/03/17 02:17:41;;;;;;;22.95;10.43;;;;;;;4.39;80.91;97768.16;5044317;28;20139;-56
2022/03/17 02:20:13;;;;;;;27.08;12.07;;;;;;;4.48;82.33;97770.97;5044443;28;20075;-66
2022/03/17 02:22:47;;;;;;;28.85;12.60;;;;;;;4.38;82.80;97755.59;5044362;28;20053;-65
2022/03/17 02:25:36;;;;;;;32.20;13.85;;;;;;;4.47;81.94;97750.97;5043948;28;20072;-57
2022/03/17 02:28:05;;;;;;;31.23;13.18;;;;;;;4.61;82.37;97765.44;5044059;28;20063;-56
2022/03/17 02:30:34;;;;;;;33.08;13.98;;;;;;;4.25;81.63;97718.06;5044642;28;20625;-55
2022/03/17 02:33:06;;;;;;;32.63;14.70;;;;;;;4.72;81.91;97782.44;5044390;28;20124;-67
2022/03/17 02:35:34;;;;;;;32.08;14.98;;;;;;;4.86;81.08;97776.84;5043833;28;20049;-67
2022/03/17 02:38:03;;;;;;;32.05;15.23;;;;;;;4.90;80.58;97786.88;5044150;28;20057;-59
2022/03/17 02:40:35;;;;;;;34.72;15.07;;;;;;;4.85;81.31;97781.53;5044187;28;20249;-56
2022/03/17 02:43:05;;;;;;;37.28;17.17;;;;;;;4.88;81.68;97785.56;5044243;28;20055;-61
2022/03/17 02:45:33;;;;;;;38.35;15.10;;;;;;;4.47;80.77;97700.81;5042501;28;20075;-56
2022/03/17 02:48:01;;;;;;;36.30;15.98;;;;;;;4.87;80.27;97778.47;5044027;28;20056;-55
2022/03/17 02:50:28;;;;;;;31.85;15.07;;;;;;;5.00;80.75;97805.81;5043931;28;20059;-55
2022/03/17 02:52:54;;;;;;;29.52;14.18;;;;;;;4.87;80.38;97781.22;5043833;28;20060;-56
2022/03/17 02:55:21;;;;;;;29.42;14.35;;;;;;;4.89;80.46;97798.16;5044158;28;20053;-56
2022/03/17 02:57:49;;;;;;;33.17;14.82;;;;;;;4.85;80.55;97802.69;5042394;28;20107;-55
2022/03/17 03:00:16;;;;;;;37.83;15.18;;;;;;;4.49;80.66;97729.53;5043648;28;20061;-57
2022/03/17 03:02:44;;;;;;;36.75;14.85;;;;;;;4.93;82.16;97801.91;5042642;28;20417;-55
2022/03/17 03:05:16;;;;;;;39.97;16.02;;;;;;;4.89;82.00;97814.63;5042652;28;20053;-55
2022/03/17 03:07:44;;;;;;;39.28;17.08;;;;;;;4.79;82.10;97812.16;5025334;28;20064;-56
2022/03/17 03:10:11;;;;;;;37.03;17.30;;;;;;;4.82;82.68;97819.78;5023612;28;20045;-57
2022/03/17 03:12:38;;;;;;;39.33;17.08;;;;;;;4.69;82.73;97794.81;5023341;28;20064;-56
2022/03/17 03:15:06;;;;;;;41.40;17.92;;;;;;;4.57;83.12;97808.31;5023068;28;20058;-58
2022/03/17 03:17:33;;;;;;;47.65;19.45;;;;;;;4.30;82.22;97752.81;5023566;28;20132;-57
2022/03/17 03:19:59;;;;;;;42.50;18.42;;;;;;;4.69;82.73;97822.25;5023602;28;20057;-65
2022/03/17 03:22:29;;;;;;;45.63;18.17;;;;;;;4.38;83.24;97791.25;5023744;28;20049;-56
2022/03/17 03:24:57;;;;;;;43.75;18.02;;;;;;;4.18;83.46;97758.03;5023265;28;20056;-56
2022/03/17 03:27:27;;;;;;;46.22;19.30;;;;;;;4.31;84.12;97793.63;5022034;28;20058;-67
2022/03/17 03:29:58;;;;;;;45.22;19.60;;;;;;;4.63;83.68;97831.75;5021799;28;20182;-55
2022/03/17 03:32:27;;;;;;;42.38;20.23;;;;;;;4.60;83.28;97835.13;5023507;28;20067;-67
2022/03/17 03:34:54;;;;;;;48.28;19.33;;;;;;;4.05;83.17;97767.94;5023181;28;20072;-58
2022/03/17 03:37:23;;;;;;;49.50;21.52;;;;;;;4.62;83.52;97843.88;5023449;28;20567;-65
2022/03/17 03:39:56;;;;;;;46.42;19.10;;;;;;;4.59;83.18;97839.00;5023191;28;20179;-66
2022/03/17 03:42:24;;;;;;;50.55;21.58;;;;;;;4.71;82.02;97845.84;5022039;28;20440;-57
2022/03/17 03:44:51;;;;;;;52.97;21.20;;;;;;;4.73;81.91;97860.09;5021350;28;20050;-55
2022/03/17 03:47:18;;;;;;;47.22;21.83;;;;;;;4.74;81.92;97856.22;5022906;28;20447;-66
2022/03/17 03:49:45;;;;;;;48.53;21.83;;;;;;;4.64;82.60;97852.59;5021847;28;20451;-55
2022/03/17 03:52:13;;;;;;;52.75;22.63;;;;;;;4.73;82.26;97863.63;5023044;28;20058;-56
2022/03/17 03:54:41;;;;;;;56.95;23.17;;;;;;;4.68;82.82;97859.06;5023299;28;20068;-56
2022/03/17 03:57:08;;;;;;;57.30;22.27;;;;;;;4.68;82.19;97869.22;5023220;28;20057;-57
2022/03/17 03:59:35;;;;;;;61.53;24.38;;;;;;;4.71;81.93;97874.09;5023461;28;20405;-57
2022/03/17 04:02:09;;;;;;;66.82;26.23;;;;;;;4.68;81.63;97868.44;5022708;28;20045;-67
2022/03/17 04:04:40;;;;;;;59.42;24.20;;;;;;;4.64;81.60;97847.13;5023143;28;20063;-55
2022/03/17 04:07:10;;;;;;;62.63;25.45;;;;;;;4.62;81.35;97871.31;5035992;28;20063;-67
2022/03/17 04:09:42;;;;;;;61.80;25.70;;;;;;;4.26;81.93;97806.66;5043303;28;20102;-67
2022/03/17 04:12:11;;;;;;;62.20;26.45;;;;;;;4.66;80.16;97888.75;5042918;28;20382;-56
2022/03/17 04:14:38;;;;;;;66.82;26.30;;;;;;;4.76;81.05;97898.66;5041491;28;20061;-58
2022/03/17 04:17:05;;;;;;;53.80;22.75;;;;;;;4.12;79.88;97806.72;5041249;28;20053;-57
2022/03/17 04:19:32;;;;;;;55.25;22.58;;;;;;;4.44;78.40;97894.22;5041290;28;20498;-67
2022/03/17 04:21:59;;;;;;;55.20;22.67;;;;;;;4.32;80.33;97890.41;5044103;28;20080;-65
2022/03/17 04:24:27;;;;;;;55.40;22.73;;;;;;;4.49;82.02;97887.78;5046565;28;20049;-67
2022/03/17 04:26:53;;;;;;;61.17;24.80;;;;;;;4.59;82.04;97902.09;5046279;28;20052;-55
2022/03/17 04:29:20;;;;;;;58.80;24.25;;;;;;;4.16;82.26;97843.34;5044991;28;20056;-67
2022/03/17 04:31:47;;;;;;;64.53;27.02;;;;;;;4.44;83.06;97883.25;5046862;28;20067;-57
2022/03/17 04:34:13;;;;;;;64.53;25.15;;;;;;;4.18;82.97;97865.78;5046669;28;20060;-68
2022/03/17 04:36:40;;;;;;;63.20;26.02;;;;;;;4.62;81.59;97904.22;5046419;28;20524;-67
2022/03/17 04:39:10;;;;;;;68.30;28.13;;;;;;;4.64;81.93;97907.47;5044643;28;20076;-57
2022/03/17 04:41:39;;;;;;;71.15;28.92;;;;;;;4.77;81.67;97914.03;5045010;28;20049;-56
2022/03/17 04:44:10;;;;;;;86.65;34.22;;;;;;;4.41;81.45;97875.66;5046249;28;20061;-56
2022/03/17 04:46:37;;;;;;;75.40;29.38;;;;;;;4.22;81.67;97850.31;5046215;28;20057;-57
2022/03/17 04:49:04;;;;;;;215.23;78.75;;;;;;;4.60;82.35;97930.34;5044673;28;20052;-67
2022/03/17 04:51:31;;;;;;;110.13;43.55;;;;;;;4.73;81.95;97931.44;5045784;28;20049;-67
2022/03/17 04:53:59;;;;;;;69.18;27.73;;;;;;;4.69;80.79;97936.72;5045604;28;20508;-57
2022/03/17 04:56:26;;;;;;;60.47;25.58;;;;;;;4.80;79.93;97942.78;5045406;28;20053;-68
2022/03/17 04:58:53;;;;;;;59.75;25.30;;;;;;;4.28;79.30;97881.97;5045555;28;20496;-56
2022/03/17 05:01:20;;;;;;;59.75;23.85;;;;;;;4.60;79.53;97947.63;5045607;28;20436;-66
2022/03/17 05:03:47;;;;;;;69.45;27.77;;;;;;;4.21;81.03;97898.06;5045668;28;20044;-58
2022/03/17 05:06:15;;;;;;;62.28;24.80;;;;;;;4.25;80.93;97918.25;5040395;28;20053;-55
2022/03/17 05:08:42;;;;;;;68.15;26.75;;;;;;;4.20;81.85;97923.88;5025986;28;20129;-58
2022/03/17 05:11:10;;;;;;;60.45;26.33;;;;;;;4.39;82.59;97948.41;5025655;28;20136;-56
2022/03/17 05:13:39;;;;;;;58.47;23.77;;;;;;;4.50;80.67;97983.50;5025109;28;20056;-58
2022/03/17 05:16:06;;;;;;;59.50;25.77;;;;;;;4.41;81.23;97973.59;5025097;28;20061;-55
2022/03/17 05:18:34;;;;;;;61.38;24.35;;;;;;;4.02;79.79;97894.66;5025113;28;20045;-66
2022/03/17 05:21:01;;;;;;;62.42;25.83;;;;;;;4.23;81.62;97950.66;5023667;28;20052;-66
2022/03/17 05:23:30;;;;;;;57.30;23.30;;;;;;;3.84;80.95;97881.09;5023736;28;20049;-66
2022/03/17 05:25:57;;;;;;;62.83;23.83;;;;;;;4.53;79.61;97950.00;5023489;28;20087;-56
2022/03/17 05:28:24;;;;;;;58.00;24.60;;;;;;;4.36;80.73;97916.91;5025055;28;20053;-60
2022/03/17 05:30:51;;;;;;;55.33;24.02;;;;;;;4.53;78.85;97936.28;5025609;28;20055;-56
2022/03/17 05:33:19;;;;;;;56.45;23.73;;;;;;;4.99;78.73;98001.06;5025727;28;20053;-56
2022/03/17 05:35:46;;;;;;;55.42;23.63;;;;;;;4.82;78.81;97951.50;5025433;28;20053;-67
2022/03/17 05:38:12;;;;;;;56.25;23.30;;;;;;;4.96;77.99;97994.25;5025191;28;20053;-56
2022/03/17 05:40:39;;;;;;;58.17;22.02;;;;;;;4.63;77.46;97932.47;5024767;28;20137;-58
2022/03/17 05:43:08;;;;;;;61.67;25.52;;;;;;;4.92;78.27;98001.47;5023170;28;20527;-56
2022/03/17 05:45:37;;;;;;;29.95;11.70;;;;;;;4.74;76.98;98001.66;5024846;28;20071;-66
2022/03/17 05:48:06;;;;;;;37.60;15.02;;;;;;;4.58;78.42;98001.97;5024814;28;20065;-66
2022/03/17 05:50:38;;;;;;;59.17;23.10;;;;;;;4.86;78.66;98015.63;5024861;28;20071;-58
2022/03/17 05:53:07;;;;;;;55.45;23.38;;;;;;;4.77;77.82;98003.78;5025522;28;20049;-66
2022/03/17 05:55:34;;;;;;;38.55;14.07;;;;;;;4.59;78.50;98009.09;5025340;28;20064;-56
2022/03/17 05:58:00;;;;;;;31.52;12.88;;;;;;;4.59;77.70;98014.59;5024897;28;20434;-65
2022/03/17 06:00:29;;;;;;;59.58;23.30;;;;;;;4.74;79.39;98015.38;5024895;28;20053;-58
2022/03/17 06:02:57;;;;;;;62.17;23.95;;;;;;;5.03;78.34;98024.00;5024778;28;20494;-56
2022/03/17 06:05:25;;;;;;;64.25;26.45;;;;;;;4.87;78.31;98031.00;5024831;28;20342;-66
2022/03/17 06:07:54;;;;;;;47.90;18.05;;;;;;;4.62;77.12;98003.00;5039635;28;20056;-58
2022/03/17 06:10:27;;;;;;;31.77;14.15;;;;;;;4.36;76.67;98009.34;5044468;28;20207;-66
2022/03/17 06:12:54;;;;;;;55.95;21.88;;;;;;;4.55;77.68;98023.75;5044426;28;20591;-66
2022/03/17 06:15:23;;;;;;;30.35;12.38;;;;;;;4.36;78.12;98045.81;5044172;28;20061;-66
2022/03/17 06:17:55;;;;;;;57.45;21.70;;;;;;;4.38;78.96;98001.59;5044215;28;20518;-66
2022/03/17 06:20:24;;;;;;;47.95;18.75;;;;;;;4.82;75.71;98056.59;5044508;28;20049;-56
2022/03/17 06:22:55;;;;;;;60.38;19.77;;;;;;;4.92;76.98;98072.03;5043804;28;20516;-58
2022/03/17 06:25:23;;;;;;;43.60;14.93;;;;;;;4.89;74.69;98083.63;5044083;28;20527;-65
2022/03/17 06:27:50;;;;;;;49.42;18.35;;;;;;;4.69;75.60;98057.47;5043660;28;20067;-55
2022/03/17 06:30:22;;;;;;;38.53;15.05;;;;;;;4.93;75.97;98082.75;5044165;28;20059;-66
2022/03/17 06:32:50;;;;;;;33.55;12.40;;;;;;;4.95;74.67;98076.94;5042859;28;20059;-58
2022/03/17 06:35:25;;;;;;;46.22;18.17;;;;;;;4.92;75.66;98072.03;5042746;28;20068;-58
2022/03/17 06:37:53;;;;;;;40.78;16.60;;;;;;;5.02;76.00;98174.22;5043941;28;20053;-64
2022/03/17 06:40:21;;;;;;;43.15;14.15;;;;;;;4.87;74.24;98080.41;5043268;28;20047;-64
2022/03/17 06:42:49;;;;;;;42.97;16.05;;;;;;;4.90;74.88;98096.25;5043784;28;20053;-57
2022/03/17 06:45:16;;;;;;;32.70;13.45;;;;;;;4.82;76.60;98073.06;5041691;28;20088;-54
2022/03/17 06:47:43;;;;;;;40.00;14.48;;;;;;;4.22;75.30;98019.53;5043727;28;20144;-64
2022/03/17 06:50:12;;;;;;;24.30;9.02;;;;;;;4.68;75.22;98089.56;5042975;28;20052;-63
2022/03/17 06:52:39;;;;;;;20.27;8.57;;;;;;;4.68;76.17;98088.75;5043964;28;20056;-55
2022/03/17 06:55:06;;;;;;;44.08;16.27;;;;;;;4.35;75.20;98014.03;5042012;28;20059;-66
2022/03/17 06:57:33;;;;;;;20.10;8.40;;;;;;;4.91;75.51;98086.88;5043446;28;20075;-63
2022/03/17 07:00:04;;;;;;;16.63;7.28;;;;;;;5.03;73.96;98087.16;5042541;28;20427;-55
2022/03/17 07:02:31;;;;;;;33.58;13.02;;;;;;;4.46;72.89;97971.53;5032651;28;20136;-56
2022/03/17 07:04:58;;;;;;;20.77;8.25;;;;;;;5.16;72.83;98086.31;5023839;28;20136;-58
2022/03/17 07:07:27;;;;;;;25.20;10.60;;;;;;;5.17;72.10;98093.44;5021072;28;20504;-56
2022/03/17 07:09:54;;;;;;;15.88;7.13;;;;;;;4.88;71.70;98093.00;5023363;28;20050;-67
2022/03/17 07:12:20;;;;;;;29.73;15.50;;;;;;;5.24;71.88;98107.56;5025758;28;20056;-71
2022/03/17 07:14:47;;;;;;;25.60;11.93;;;;;;;4.73;70.60;98000.84;5042771;28;20075;-55
2022/03/17 07:17:18;;;;;;;25.80;12.20;;;;;;;5.50;71.00;98086.59;5037909;28;20051;-62
2022/03/17 07:22:27;;;;;;;26.27;11.20;;;;;;;5.63;70.16;98118.69;5042602;28;20049;-61
2022/03/17 07:24:54;;;;;;;22.65;10.05;;;;;;;5.60;68.94;98116.56;5042768;28;20056;-62
2022/03/17 07:27:21;;;;;;;21.52;9.98;;;;;;;5.91;68.10;98101.00;5040983;28;20123;-66
2022/03/17 07:29:49;;;;;;;25.10;10.85;;;;;;;6.08;68.45;98123.09;5042834;28;20075;-61
2022/03/17 07:32:16;;;;;;;27.88;11.32;;;;;;;6.47;66.92;98119.53;5040668;28;20056;-61
2022/03/17 07:34:43;;;;;;;22.95;11.02;;;;;;;6.29;66.78;98084.84;5037820;28;20128;-58
2022/03/17 07:37:09;;;;;;;23.02;9.35;;;;;;;6.64;64.73;98127.88;5026185;28;20049;-57
2022/03/17 07:39:36;;;;;;;22.15;9.57;;;;;;;6.73;64.81;98124.03;5023596;28;20050;-58
2022/03/17 07:42:04;;;;;;;23.17;10.93;;;;;;;6.00;63.20;98006.41;5025656;28;20131;-56
2022/03/17 07:44:31;;;;;;;19.73;9.93;;;;;;;6.52;61.39;98056.91;5039175;28;20056;-56
2022/03/17 07:46:58;;;;;;;26.08;11.02;;;;;;;7.25;59.77;98123.03;5027710;28;20080;-62
2022/03/17 07:49:25;;;;;;;24.30;10.23;;;;;;;7.03;59.98;98145.19;5028548;28;20416;-54
2022/03/17 07:51:53;;;;;;;18.23;8.23;;;;;;;6.51;61.40;98115.84;5032842;28;20049;-56
2022/03/17 07:54:20;;;;;;;25.40;12.65;;;;;;;6.47;62.76;98125.88;5029713;28;20053;-56
2022/03/17 07:56:47;;;;;;;24.90;12.00;;;;;;;4.87;60.74;97786.72;5032529;28;20058;-62
2022/03/17 07:59:16;;;;;;;26.15;11.23;;;;;;;7.09;58.92;98066.75;4997912;28;20054;-65
2022/03/17 08:01:43;;;;;;;22.60;11.15;;;;;;;6.95;57.44;98049.56;5009086;28;20050;-60
2022/03/17 08:04:10;;;;;;;20.30;11.07;;;;;;;7.53;55.96;98105.03;5021504;28;20263;-55
2022/03/17 08:06:37;;;;;;;21.83;9.95;;;;;;;7.78;56.59;98132.91;5007821;28;20072;-60
2022/03/17 08:09:04;;;;;;;22.92;12.20;;;;;;;7.51;57.85;98137.63;5021429;28;20072;-56
2022/03/17 08:11:30;;;;;;;19.58;10.15;;;;;;;7.16;58.10;98105.63;5007633;28;20049;-60
2022/03/17 08:13:57;;;;;;;21.25;9.82;;;;;;;6.87;59.24;98149.50;5007829;28;20054;-68
2022/03/17 08:16:24;;;;;;;27.60;13.32;;;;;;;7.12;60.45;98154.28;5012800;28;20052;-63
2022/03/17 08:18:53;;;;;;;23.80;12.35;;;;;;;7.20;60.40;98139.69;5022568;28;20045;-58
2022/03/17 08:21:20;;;;;;;11.77;5.90;;;;;;;7.19;58.25;98149.09;5021783;28;20109;-58
2022/03/17 08:23:46;;;;;;;18.55;8.80;;;;;;;6.31;59.45;98033.84;5014773;28;20058;-56
2022/03/17 08:26:14;;;;;;;13.23;7.22;;;;;;;6.92;58.89;98152.13;5008119;28;20125;-64
2022/03/17 08:28:41;;;;;;;21.35;10.85;;;;;;;6.63;60.55;98085.78;5004681;28;20057;-70
2022/03/17 08:31:08;;;;;;;24.55;12.18;;;;;;;6.51;60.75;98027.78;5008835;28;20091;-64
2022/03/17 08:33:35;;;;;;;25.83;11.73;;;;;;;7.29;59.75;98157.06;5011663;28;20085;-65
2022/03/17 08:36:05;;;;;;;19.70;9.75;;;;;;;7.33;57.90;98149.75;5014825;28;20432;-56
2022/03/17 08:38:33;;;;;;;19.05;9.88;;;;;;;6.71;59.51;98093.25;5013964;28;20060;-56
2022/03/17 08:41:00;;;;;;;20.73;10.68;;;;;;;7.68;57.65;98112.78;5017620;28;20527;-69
2022/03/17 08:43:28;;;;;;;19.88;10.23;;;;;;;8.06;56.70;98106.59;5014053;28;20060;-56
2022/03/17 08:51:26;;;;;;;18.60;9.65;;;;;;;8.99;52.19;98131.09;5019180;28;20053;-59
2022/03/17 08:53:53;;;;;;;20.30;10.00;;;;;;;8.93;53.10;98142.69;5020100;28;20045;-65
2022/03/17 08:56:20;;;;;;;21.58;10.27;;;;;;;9.12;54.37;98134.75;5012217;28;20061;-73
2022/03/17 08:58:47;;;;;;;19.27;9.20;;;;;;;8.98;54.07;98156.28;5021097;28;20054;-63
2022/03/17 09:01:14;;;;;;;20.00;10.30;;;;;;;9.28;54.66;98132.25;5009947;28;20057;-58
2022/03/17 09:03:41;;;;;;;20.40;10.65;;;;;;;9.83;53.64;98144.66;5006648;28;20085;-57
2022/03/17 09:06:10;;;;;;;21.58;10.40;;;;;;;9.84;54.05;98146.28;5005249;28;20436;-56
2022/03/17 09:08:40;;;;;;;13.45;6.15;;;;;;;8.52;53.94;98148.06;5015493;28;20058;-64
2022/03/17 09:11:07;;;;;;;21.55;9.73;;;;;;;8.62;55.16;98147.69;5010288;28;20050;-56
2022/03/17 09:13:34;;;;;;;17.27;9.93;;;;;;;8.28;53.54;98081.56;5007299;28;20247;-55
2022/03/17 09:16:01;;;;;;;15.32;8.35;;;;;;;8.40;55.39;98145.16;5017886;28;20571;-66
2022/03/17 09:18:28;;;;;;;18.77;10.73;;;;;;;8.01;57.56;98104.81;5011052;28;20070;-56
2022/03/17 09:20:56;;;;;;;16.08;9.13;;;;;;;8.21;56.91;98042.56;5018812;28;20504;-56
2022/03/17 09:23:23;;;;;;;20.58;10.38;;;;;;;8.98;55.55;98145.25;5004046;28;20487;-65
2022/03/17 09:25:50;;;;;;;19.38;9.85;;;;;;;8.51;53.40;98085.69;5005037;28;20054;-56
2022/03/17 09:28:16;;;;;;;20.65;10.57;;;;;;;8.14;55.69;98160.94;5005281;28;20108;-65
2022/03/17 09:30:43;;;;;;;18.58;9.93;;;;;;;7.79;57.07;98168.44;5005297;28;20532;-55
2022/03/17 09:33:10;;;;;;;19.42;8.88;;;;;;;7.87;55.99;98108.88;5005603;28;20093;-57
2022/03/17 09:35:37;;;;;;;20.75;9.75;;;;;;;7.89;55.18;98120.41;5021042;28;20053;-69
2022/03/17 09:38:05;;;;;;;27.67;11.98;;;;;;;7.84;57.72;98150.94;5023822;28;20053;-56
2022/03/17 09:40:35;;;;;;;40.42;16.83;;;;;;;7.83;56.69;98083.09;5018328;28;20132;-55
2022/03/17 09:43:28;;;;;;;21.48;9.38;;;;;;;7.72;57.07;98116.53;5013163;28;20145;-53
2022/03/17 09:45:59;;;;;;;23.13;12.23;;;;;;;7.99;57.90;98162.25;5024914;28;20061;-69
2022/03/17 09:48:26;;;;;;;21.60;12.73;;;;;;;8.31;55.99;98136.91;5008991;28;20046;-58
2022/03/17 09:51:00;;;;;;;23.60;10.02;;;;;;;8.06;56.26;98085.31;5004424;28;20065;-68
2022/03/17 09:53:29;;;;;;;18.05;9.63;;;;;;;9.17;55.06;98173.25;5004920;28;20651;-58
2022/03/17 09:55:56;;;;;;;20.95;9.98;;;;;;;8.84;54.95;98166.75;5013435;28;20401;-55
2022/03/17 09:58:23;;;;;;;19.02;11.68;;;;;;;8.99;55.31;98174.50;5008468;28;20477;-67
2022/03/17 10:00:50;;;;;;;18.70;9.23;;;;;;;8.33;56.41;98200.09;5004769;28;20054;-54
2022/03/17 10:03:29;;;;;;;19.33;10.18;;;;;;;8.96;55.14;98172.41;5023546;28;20088;-65
2022/03/17 10:05:57;;;;;;;26.77;11.88;;;;;;;9.02;52.79;98173.84;5007425;28;20054;-56
2022/03/17 10:08:25;;;;;;;23.65;10.75;;;;;;;9.03;53.65;98169.94;5012206;28;20115;-54
2022/03/17 10:10:52;;;;;;;17.55;9.40;;;;;;;8.80;52.53;98171.34;5023618;28;20046;-56
2022/03/17 10:13:22;;;;;;;19.23;9.80;;;;;;;9.14;53.05;98165.66;5022852;28;20057;-67
2022/03/17 10:16:11;;;;;;;23.58;11.48;;;;;;;9.06;52.60;98166.50;5023856;28;20144;-67
2022/03/17 10:18:39;;;;;;;17.58;8.75;;;;;;;8.65;52.68;98102.81;5024260;28;20053;-72
2022/03/17 10:21:08;;;;;;;24.63;11.88;;;;;;;9.16;53.48;98174.41;5023526;28;20063;-67
2022/03/17 10:23:47;;;;;;;19.50;10.68;;;;;;;8.25;54.38;98181.59;5022546;28;20050;-54
2022/03/17 10:26:30;;;;;;;16.63;9.82;;;;;;;8.09;56.13;98183.19;5023667;28;20055;-67
2022/03/17 10:29:12;;;;;;;17.38;7.45;;;;;;;8.48;55.87;98178.28;5017657;28;20183;-55
2022/03/17 10:32:00;;;;;;;15.00;8.23;;;;;;;7.83;57.01;98190.66;5003724;28;20057;-55
2022/03/17 10:34:46;;;;;;;15.80;9.05;;;;;;;7.96;55.90;98189.69;5004188;28;20065;-65
2022/03/17 10:37:16;;;;;;;21.17;10.18;;;;;;;8.08;57.42;98184.34;5018215;28;20530;-67
2022/03/17 10:39:48;;;;;;;11.48;5.10;;;;;;;7.58;56.03;98184.81;5002986;28;20136;-63
2022/03/17 10:42:20;;;;;;;20.38;10.80;;;;;;;7.71;57.12;98188.56;5021902;28;20053;-64
2022/03/17 10:44:52;;;;;;;19.30;10.50;;;;;;;7.64;56.59;98087.00;5012651;28;20471;-56
2022/03/17 10:47:26;;;;;;;14.82;8.48;;;;;;;8.33;54.70;98139.34;5011218;28;20576;-54
2022/03/17 10:50:00;;;;;;;18.85;10.27;;;;;;;8.70;54.94;98182.75;5011743;28;20053;-63
2022/03/17 10:52:46;;;;;;;;;;;;;;;8.39;53.68;98182.19;5011318;28;20053;-56
2022/03/17 10:55:13;;;;;;;13.55;7.72;;;;;;;8.64;53.95;98181.31;5006521;28;20281;-63
2022/03/17 10:57:40;;;;;;;15.63;8.45;;;;;;;9.01;52.57;98183.25;5019268;28;20526;-64
2022/03/17 11:00:19;;;;;;;13.48;8.30;;;;;;;8.92;53.39;98179.72;5007089;28;20058;-55
2022/03/17 11:02:48;;;;;;;20.02;9.52;;;;;;;9.10;52.96;98153.66;5012715;28;20141;-62
2022/03/17 11:05:18;;;;;;;23.05;10.70;;;;;;;9.72;52.55;98171.09;5023792;28;20049;-68
2022/03/17 11:07:46;;;;;;;17.80;10.38;;;;;;;9.90;51.59;98172.59;5008421;28;20057;-66
2022/03/17 11:10:15;;;;;;;15.68;9.65;;;;;;;9.69;51.16;98138.59;5003064;28;20058;-69
2022/03/17 11:12:43;;;;;;;15.88;8.82;;;;;;;9.96;50.74;98126.97;5003206;28;20054;-57
2022/03/17 11:15:10;;;;;;;13.75;7.05;;;;;;;9.80;50.01;98156.41;5003196;28;20061;-57
2022/03/17 11:17:47;;;;;;;15.60;9.55;;;;;;;10.12;50.33;98180.56;5016979;28;20550;-56
2022/03/17 11:20:20;;;;;;;11.95;5.93;;;;;;;9.23;51.03;98174.72;5017221;28;20056;-55
2022/03/17 11:23:06;;;;;;;14.85;8.40;;;;;;;9.22;52.70;98178.59;5009540;28;20056;-57
2022/03/17 11:25:34;;;;;;;19.65;10.18;;;;;;;8.59;54.09;98181.50;5011402;28;20489;-54
2022/03/17 11:28:03;;;;;;;15.00;9.27;;;;;;;9.05;51.82;98151.06;5006694;28;20041;-63
2022/03/17 11:30:31;;;;;;;15.18;8.60;;;;;;;9.55;50.67;98179.53;5023447;28;20069;-58
2022/03/17 11:32:58;;;;;;;27.33;13.32;;;;;;;10.04;50.33;98173.13;5026160;28;20520;-55
2022/03/17 11:35:29;;;;;;;16.98;9.57;;;;;;;10.14;49.47;98175.53;5013738;28;20046;-55
2022/03/17 11:38:16;;;;;;;18.98;9.82;;;;;;;9.61;50.42;98169.09;5023059;28;20102;-71
2022/03/17 11:41:15;;;;;;;22.77;12.40;;;;;;;9.75;49.26;98131.72;5014332;28;20053;-55
2022/03/17 11:43:44;;;;;;;11.75;6.97;;;;;;;9.17;50.44;98176.03;5012708;28;20046;-57
2022/03/17 11:46:18;;;;;;;14.65;8.25;;;;;;;9.28;51.31;98174.50;5025575;28;20050;-56
2022/03/17 11:48:54;;;;;;;13.85;7.80;;;;;;;8.83;51.50;98120.94;5027141;28;20080;-64